createdAt,value
2016-12-21T00:00:46.332Z,1.15
2016-12-21T00:01:28.026Z,1.18
2016-12-21T00:02:09.699Z,1.16
2016-12-21T00:02:51.095Z,1.15
2016-12-21T00:03:32.883Z,1.14
2016-12-21T00:04:14.462Z,1.16
2016-12-21T00:04:56.154Z,1.08
2016-12-21T00:05:37.803Z,1.12
2016-12-21T00:06:19.509Z,1.14
2016-12-21T00:07:01.217Z,1.09
2016-12-21T00:07:42.866Z,1.15
2016-12-21T00:08:24.532Z,1.16
2016-12-21T00:09:06.246Z,1.06
2016-12-21T00:09:47.958Z,1.06
2016-12-21T00:10:29.587Z,1.14
2016-12-21T00:11:11.027Z,1.06
2016-12-21T00:13:05.753Z,0.97
2016-12-21T00:15:00.381Z,1.09
2016-12-21T00:15:41.979Z,1.05
2016-12-21T00:16:23.671Z,1.04
2016-12-21T00:17:05.298Z,1.06
2016-12-21T00:17:46.940Z,1.08
2016-12-21T00:18:28.643Z,1.09
2016-12-21T00:19:10.294Z,1.02
2016-12-21T00:19:51.984Z,0.93
2016-12-21T00:20:33.659Z,0.94
2016-12-21T00:21:15.453Z,0.93
2016-12-21T00:21:57.052Z,1.09
2016-12-21T00:22:38.772Z,1.08
2016-12-21T00:23:20.231Z,1.08
2016-12-21T00:24:02.025Z,1.12
2016-12-21T00:25:51.428Z,1.05
2016-12-21T00:27:40.708Z,1.02
2016-12-21T00:28:22.447Z,1.06
2016-12-21T00:29:04.161Z,1.04
2016-12-21T00:29:45.934Z,1
2016-12-21T00:30:27.680Z,0.96
2016-12-21T00:31:09.390Z,0.91
2016-12-21T00:31:51.151Z,0.97
2016-12-21T00:32:32.860Z,0.94
2016-12-21T00:33:14.502Z,1
2016-12-21T00:33:56.134Z,0.98
2016-12-21T00:35:50.745Z,0.93
2016-12-21T00:37:50.749Z,0.86
2016-12-21T00:38:32.546Z,0.91
2016-12-21T00:39:14.242Z,0.93
2016-12-21T00:40:53.298Z,0.94
2016-12-21T00:41:35.009Z,0.93
2016-12-21T00:42:16.647Z,0.97
2016-12-21T00:42:58.434Z,0.97
2016-12-21T00:44:58.108Z,1
2016-12-21T00:45:39.754Z,0.97
2016-12-21T00:46:21.339Z,0.94
2016-12-21T00:47:02.903Z,0.91
2016-12-21T00:47:44.685Z,0.91
2016-12-21T00:48:26.276Z,0.93
2016-12-21T00:49:08.023Z,0.96
2016-12-21T00:49:49.744Z,0.97
2016-12-21T00:50:31.419Z,0.88
2016-12-21T00:51:13.074Z,0.93
2016-12-21T00:51:54.780Z,0.9
2016-12-21T00:54:10.170Z,0.87
2016-12-21T00:54:51.954Z,0.84
2016-12-21T00:55:33.650Z,0.86
2016-12-21T00:56:15.372Z,0.79
2016-12-21T00:56:57.079Z,0.78
2016-12-21T00:57:38.841Z,0.84
2016-12-21T00:58:20.510Z,0.91
2016-12-21T01:00:15.123Z,0.83
2016-12-21T01:02:09.810Z,0.8
2016-12-21T01:02:51.489Z,0.73
2016-12-21T01:03:33.042Z,0.84
2016-12-21T01:05:22.336Z,0.83
2016-12-21T01:06:03.871Z,0.8
2016-12-21T01:07:58.407Z,0.8
2016-12-21T01:08:40.062Z,0.75
2016-12-21T01:10:55.558Z,0.79
2016-12-21T01:11:37.359Z,0.86
2016-12-21T01:12:19.092Z,0.84
2016-12-21T01:13:00.694Z,0.78
2016-12-21T01:13:42.470Z,0.78
2016-12-21T01:14:24.202Z,0.78
2016-12-21T01:16:13.616Z,0.78
2016-12-21T01:16:55.337Z,0.83
2016-12-21T01:17:37.067Z,0.7
2016-12-21T01:19:52.115Z,0.69
2016-12-21T01:20:33.835Z,0.65
2016-12-21T01:21:15.233Z,0.69
2016-12-21T01:22:54.349Z,0.66
2016-12-21T01:23:36.155Z,0.69
2016-12-21T01:24:17.910Z,0.66
2016-12-21T01:24:59.540Z,0.58
2016-12-21T01:25:41.028Z,0.65
2016-12-21T01:26:22.790Z,0.69
2016-12-21T01:27:04.605Z,0.57
2016-12-21T01:27:46.395Z,0.65
2016-12-21T01:28:28.172Z,0.68
2016-12-21T01:29:09.875Z,0.62
2016-12-21T01:29:51.618Z,0.62
2016-12-21T01:30:33.307Z,0.69
2016-12-21T01:31:14.962Z,0.6
2016-12-21T01:32:53.954Z,0.66
2016-12-21T01:34:53.745Z,0.66
2016-12-21T01:35:35.362Z,0.53
2016-12-21T01:37:50.463Z,0.49
2016-12-21T01:38:32.190Z,0.47
2016-12-21T01:40:47.533Z,0.55
2016-12-21T01:41:29.182Z,0.6
2016-12-21T01:42:10.926Z,0.61
2016-12-21T01:42:52.573Z,0.53
2016-12-21T01:43:34.308Z,0.65
2016-12-21T01:44:15.972Z,0.68
2016-12-21T01:44:57.626Z,0.58
2016-12-21T01:45:39.461Z,0.58
2016-12-21T01:46:21.026Z,0.6
2016-12-21T01:47:02.755Z,0.55
2016-12-21T01:47:44.446Z,0.65
2016-12-21T01:48:26.194Z,0.55
2016-12-21T01:49:07.885Z,0.53
2016-12-21T01:49:49.570Z,0.62
2016-12-21T01:50:31.339Z,0.6
2016-12-21T01:51:13.076Z,0.55
2016-12-21T01:51:54.745Z,0.6
2016-12-21T01:52:36.400Z,0.51
2016-12-21T01:53:18.051Z,0.53
2016-12-21T01:53:59.727Z,0.51
2016-12-21T01:54:41.512Z,0.66
2016-12-21T01:55:23.110Z,0.62
2016-12-21T01:56:04.845Z,0.61
2016-12-21T01:56:46.611Z,0.66
2016-12-21T01:58:46.303Z,0.46
2016-12-21T01:59:27.547Z,0.5
2016-12-21T02:00:08.081Z,0.5
2016-12-21T02:00:48.606Z,0.58
2016-12-21T02:01:29.139Z,0.65
2016-12-21T02:02:09.654Z,0.69
2016-12-21T02:02:50.191Z,0.58
2016-12-21T02:03:30.695Z,0.66
2016-12-21T02:04:11.218Z,0.58
2016-12-21T02:04:51.747Z,0.62
2016-12-21T02:05:32.265Z,0.66
2016-12-21T02:06:12.785Z,0.65
2016-12-21T02:06:53.312Z,0.65
2016-12-21T02:07:33.877Z,0.61
2016-12-21T02:08:14.351Z,0.69
2016-12-21T02:08:54.915Z,0.72
2016-12-21T02:09:35.469Z,0.62
2016-12-21T02:10:15.986Z,0.58
2016-12-21T02:10:56.495Z,0.69
2016-12-21T02:11:37.033Z,0.69
2016-12-21T02:12:17.557Z,0.69
2016-12-21T02:12:58.088Z,0.7
2016-12-21T02:13:38.620Z,0.72
2016-12-21T02:14:19.146Z,0.62
2016-12-21T02:14:59.685Z,0.66
2016-12-21T02:15:40.206Z,0.68
2016-12-21T02:16:20.739Z,0.65
2016-12-21T02:17:01.273Z,0.66
2016-12-21T02:17:41.803Z,0.72
2016-12-21T02:18:22.341Z,0.69
2016-12-21T02:19:02.869Z,0.57
2016-12-21T02:19:43.403Z,0.58
2016-12-21T02:20:23.925Z,0.6
2016-12-21T02:21:04.472Z,0.62
2016-12-21T02:21:44.992Z,0.58
2016-12-21T02:22:25.529Z,0.61
2016-12-21T02:23:06.043Z,0.62
2016-12-21T02:23:46.580Z,0.68
2016-12-21T02:24:27.110Z,0.61
2016-12-21T02:25:07.651Z,0.65
2016-12-21T02:25:48.158Z,0.5
2016-12-21T02:26:30.656Z,0.53
2016-12-21T02:27:11.205Z,0.58
2016-12-21T02:27:51.719Z,0.55
2016-12-21T02:28:32.254Z,0.57
2016-12-21T02:29:12.783Z,0.5
2016-12-21T02:29:53.291Z,0.53
2016-12-21T02:30:33.798Z,0.49
2016-12-21T02:31:14.314Z,0.61
2016-12-21T02:31:54.847Z,0.51
2016-12-21T02:32:35.372Z,0.55
2016-12-21T02:33:15.883Z,0.44
2016-12-21T02:33:56.410Z,0.44
2016-12-21T02:34:36.961Z,0.42
2016-12-21T02:35:17.470Z,0.49
2016-12-21T02:35:57.997Z,0.44
2016-12-21T02:36:38.539Z,0.42
2016-12-21T02:37:19.067Z,0.46
2016-12-21T02:37:59.615Z,0.38
2016-12-21T02:38:40.112Z,0.35
2016-12-21T02:39:20.626Z,0.46
2016-12-21T02:40:01.146Z,0.38
2016-12-21T02:40:41.669Z,0.36
2016-12-21T02:41:22.221Z,0.38
2016-12-21T02:42:02.720Z,0.38
2016-12-21T02:42:43.247Z,0.35
2016-12-21T02:43:23.764Z,0.36
2016-12-21T02:44:04.296Z,0.32
2016-12-21T02:44:44.821Z,0.35
2016-12-21T02:45:25.363Z,0.35
2016-12-21T02:46:05.883Z,0.21
2016-12-21T02:46:46.413Z,0.32
2016-12-21T02:47:26.945Z,0.38
2016-12-21T02:48:07.469Z,0.35
2016-12-21T02:48:48.000Z,0.39
2016-12-21T02:49:28.537Z,0.44
2016-12-21T02:50:09.070Z,0.39
2016-12-21T02:50:49.601Z,0.39
2016-12-21T02:51:30.124Z,0.36
2016-12-21T02:52:10.650Z,0.41
2016-12-21T02:52:51.229Z,0.38
2016-12-21T02:53:31.757Z,0.32
2016-12-21T02:54:12.283Z,0.42
2016-12-21T02:54:52.812Z,0.35
2016-12-21T02:55:33.344Z,0.39
2016-12-21T02:56:13.863Z,0.24
2016-12-21T02:56:54.395Z,0.29
2016-12-21T02:57:34.908Z,0.26
2016-12-21T02:58:15.424Z,0.26
2016-12-21T02:58:55.961Z,0.26
2016-12-21T02:59:36.501Z,0.23
2016-12-21T03:00:17.030Z,0.26
2016-12-21T03:00:57.555Z,0.28
2016-12-21T03:01:38.096Z,0.31
2016-12-21T03:02:18.615Z,0.36
2016-12-21T03:02:59.149Z,0.36
2016-12-21T03:03:39.684Z,0.32
2016-12-21T03:04:20.215Z,0.32
2016-12-21T03:05:00.752Z,0.35
2016-12-21T03:05:41.285Z,0.28
2016-12-21T03:06:21.817Z,0.39
2016-12-21T03:07:02.378Z,0.29
2016-12-21T03:07:42.878Z,0.28
2016-12-21T03:08:23.404Z,0.35
2016-12-21T03:09:03.930Z,0.36
2016-12-21T03:09:44.459Z,0.35
2016-12-21T03:10:24.995Z,0.36
2016-12-21T03:11:05.515Z,0.29
2016-12-21T03:11:46.031Z,0.28
2016-12-21T03:12:26.559Z,0.29
2016-12-21T03:13:07.081Z,0.29
2016-12-21T03:13:47.608Z,0.26
2016-12-21T03:14:28.147Z,0.26
2016-12-21T03:15:08.667Z,0.28
2016-12-21T03:15:49.180Z,0.28
2016-12-21T03:16:29.701Z,0.23
2016-12-21T03:17:10.232Z,0.21
2016-12-21T03:17:50.764Z,0.26
2016-12-21T03:18:31.289Z,0.31
2016-12-21T03:19:11.819Z,0.21
2016-12-21T03:19:52.352Z,0.31
2016-12-21T03:20:32.882Z,0.2
2016-12-21T03:21:13.416Z,0.23
2016-12-21T03:21:53.947Z,0.21
2016-12-21T03:22:34.478Z,0.23
2016-12-21T03:23:15.021Z,0.24
2016-12-21T03:23:55.552Z,0.23
2016-12-21T03:24:36.079Z,0.15
2016-12-21T03:25:16.614Z,0.15
2016-12-21T03:25:57.153Z,0.15
2016-12-21T03:26:37.694Z,0.11
2016-12-21T03:27:18.236Z,0.07
2016-12-21T03:27:58.778Z,0.17
2016-12-21T03:28:39.315Z,0.02
2016-12-21T03:29:19.843Z,0.04
2016-12-21T03:30:00.373Z,0.03
2016-12-21T03:30:40.902Z,0.02
2016-12-21T03:31:21.477Z,0.07
2016-12-21T03:32:02.008Z,0.15
2016-12-21T03:32:42.537Z,0.11
2016-12-21T03:33:23.071Z,0.03
2016-12-21T03:34:03.593Z,0.03
2016-12-21T03:34:44.129Z,0.04
2016-12-21T03:35:24.664Z,0.04
2016-12-21T03:36:05.200Z,0.03
2016-12-21T03:36:45.724Z,0.08
2016-12-21T03:37:26.233Z,0.08
2016-12-21T03:38:06.772Z,0.11
2016-12-21T03:38:47.300Z,0.1
2016-12-21T03:39:27.833Z,0.15
2016-12-21T03:40:08.363Z,0.23
2016-12-21T03:40:48.886Z,0.15
2016-12-21T03:41:29.406Z,0.13
2016-12-21T03:42:09.941Z,0.21
2016-12-21T03:42:50.480Z,0.2
2016-12-21T03:43:31.008Z,0.23
2016-12-21T03:44:11.525Z,0.21
2016-12-21T03:44:52.062Z,0.17
2016-12-21T03:45:32.593Z,0.2
2016-12-21T03:46:13.114Z,0.14
2016-12-21T03:46:53.657Z,0.15
2016-12-21T03:47:34.163Z,0.1
2016-12-21T03:48:14.700Z,0.03
2016-12-21T03:48:55.213Z,0.1
2016-12-21T03:49:35.735Z,0.07
2016-12-21T03:50:16.274Z,0.08
2016-12-21T03:50:56.805Z,0.02
2016-12-21T03:51:37.332Z,-0.03
2016-12-21T03:52:17.849Z,0.02
2016-12-21T03:52:58.379Z,0.03
2016-12-21T03:53:38.911Z,0.03
2016-12-21T03:54:19.442Z,-0.01
2016-12-21T03:54:59.962Z,-0.01
2016-12-21T03:55:40.493Z,0.04
2016-12-21T03:56:21.023Z,-0.08
2016-12-21T03:57:01.558Z,-0.08
2016-12-21T03:57:42.093Z,-0.08
2016-12-21T03:58:22.619Z,-0.1
2016-12-21T03:59:03.154Z,-0.1
2016-12-21T03:59:43.693Z,-0.07
2016-12-21T04:00:24.230Z,-0.08
2016-12-21T04:01:04.753Z,-0.1
2016-12-21T04:01:45.280Z,-0.11
2016-12-21T04:02:25.809Z,-0.14
2016-12-21T04:03:06.423Z,-0.14
2016-12-21T04:03:46.920Z,-0.16
2016-12-21T04:04:27.444Z,-0.16
2016-12-21T04:05:08.043Z,-0.07
2016-12-21T04:05:48.528Z,-0.18
2016-12-21T04:06:29.174Z,-0.11
2016-12-21T04:07:09.709Z,-0.15
2016-12-21T04:07:50.371Z,-0.07
2016-12-21T04:08:30.871Z,-0.16
2016-12-21T04:09:11.402Z,-0.16
2016-12-21T04:09:51.933Z,-0.08
2016-12-21T04:10:32.465Z,-0.18
2016-12-21T04:11:12.991Z,-0.07
2016-12-21T04:11:53.540Z,-0.08
2016-12-21T04:12:34.068Z,-0.11
2016-12-21T04:13:14.612Z,-0.1
2016-12-21T04:13:55.134Z,-0.1
2016-12-21T04:14:35.680Z,-0.08
2016-12-21T04:15:16.212Z,-0.08
2016-12-21T04:15:56.737Z,-0.14
2016-12-21T04:16:37.263Z,-0.03
2016-12-21T04:17:17.783Z,-0.04
2016-12-21T04:17:58.313Z,-0.05
2016-12-21T04:18:38.828Z,-0.08
2016-12-21T04:19:19.367Z,-0.08
2016-12-21T04:19:59.903Z,-0.19
2016-12-21T04:20:40.412Z,-0.1
2016-12-21T04:21:20.939Z,-0.11
2016-12-21T04:22:01.459Z,-0.14
2016-12-21T04:22:42.000Z,-0.1
2016-12-21T04:23:22.539Z,-0.07
2016-12-21T04:24:03.069Z,0
2016-12-21T04:24:43.620Z,0.02
2016-12-21T04:25:24.151Z,-0.04
2016-12-21T04:26:04.659Z,-0.01
2016-12-21T04:26:45.194Z,-0.08
2016-12-21T04:27:25.733Z,-0.01
2016-12-21T04:28:06.244Z,0.07
2016-12-21T04:28:46.778Z,0.1
2016-12-21T04:29:27.299Z,0.04
2016-12-21T04:30:07.827Z,0.07
2016-12-21T04:30:48.358Z,0.15
2016-12-21T04:31:28.872Z,0.15
2016-12-21T04:32:09.394Z,0.14
2016-12-21T04:32:49.932Z,0.24
2016-12-21T04:33:30.468Z,0.26
2016-12-21T04:34:10.990Z,0.17
2016-12-21T04:34:51.521Z,0.2
2016-12-21T04:35:32.052Z,0.23
2016-12-21T04:36:12.601Z,0.21
2016-12-21T04:36:53.127Z,0.23
2016-12-21T04:37:33.652Z,0.17
2016-12-21T04:38:14.182Z,0.21
2016-12-21T04:38:54.711Z,0.21
2016-12-21T04:39:35.254Z,0.21
2016-12-21T04:40:15.790Z,0.21
2016-12-21T04:40:56.319Z,0.26
2016-12-21T04:41:36.839Z,0.26
2016-12-21T04:42:17.361Z,0.23
2016-12-21T04:42:57.893Z,0.32
2016-12-21T04:43:38.396Z,0.38
2016-12-21T04:44:18.923Z,0.31
2016-12-21T04:44:59.455Z,0.23
2016-12-21T04:45:39.980Z,0.24
2016-12-21T04:46:20.504Z,0.26
2016-12-21T04:47:01.025Z,0.21
2016-12-21T04:47:41.569Z,0.28
2016-12-21T04:48:22.103Z,0.23
2016-12-21T04:49:02.631Z,0.21
2016-12-21T04:49:43.170Z,0.28
2016-12-21T04:50:23.719Z,0.23
2016-12-21T04:51:04.226Z,0.23
2016-12-21T04:51:44.781Z,0.21
2016-12-21T04:52:25.289Z,0.23
2016-12-21T04:53:05.819Z,0.28
2016-12-21T04:53:46.355Z,0.36
2016-12-21T04:54:26.884Z,0.32
2016-12-21T04:55:07.464Z,0.33
2016-12-21T04:55:47.991Z,0.35
2016-12-21T04:56:28.524Z,0.33
2016-12-21T04:57:09.057Z,0.31
2016-12-21T04:57:49.593Z,0.33
2016-12-21T04:58:30.121Z,0.35
2016-12-21T04:59:10.644Z,0.36
2016-12-21T04:59:51.172Z,0.38
2016-12-21T05:00:31.702Z,0.36
2016-12-21T05:01:12.242Z,0.41
2016-12-21T05:01:52.764Z,0.39
2016-12-21T05:02:33.302Z,0.39
2016-12-21T05:03:13.835Z,0.41
2016-12-21T05:03:54.366Z,0.35
2016-12-21T05:04:34.902Z,0.24
2016-12-21T05:05:15.433Z,0.32
2016-12-21T05:05:55.977Z,0.31
2016-12-21T05:06:36.502Z,0.31
2016-12-21T05:07:17.032Z,0.24
2016-12-21T05:07:57.561Z,0.26
2016-12-21T05:08:38.104Z,0.23
2016-12-21T05:09:18.638Z,0.23
2016-12-21T05:09:59.176Z,0.29
2016-12-21T05:10:39.713Z,0.26
2016-12-21T05:11:20.245Z,0.33
2016-12-21T05:12:00.788Z,0.33
2016-12-21T05:12:41.323Z,0.35
2016-12-21T05:13:21.861Z,0.29
2016-12-21T05:14:02.388Z,0.24
2016-12-21T05:14:42.909Z,0.24
2016-12-21T05:15:23.424Z,0.24
2016-12-21T05:16:03.954Z,0.24
2016-12-21T05:16:44.488Z,0.21
2016-12-21T05:17:24.985Z,0.31
2016-12-21T05:18:05.521Z,0.2
2016-12-21T05:18:46.043Z,0.23
2016-12-21T05:19:26.555Z,0.24
2016-12-21T05:20:07.095Z,0.18
2016-12-21T05:20:47.614Z,0.24
2016-12-21T05:21:28.144Z,0.29
2016-12-21T05:22:08.659Z,0.26
2016-12-21T05:22:49.276Z,0.29
2016-12-21T05:23:30.000Z,0.23
2016-12-21T05:24:10.430Z,0.23
2016-12-21T05:24:50.955Z,0.2
2016-12-21T05:25:31.533Z,0.24
2016-12-21T05:26:12.058Z,0.21
2016-12-21T05:26:52.594Z,0.32
2016-12-21T05:27:33.122Z,0.26
2016-12-21T05:28:13.663Z,0.21
2016-12-21T05:28:54.178Z,0.26
2016-12-21T05:29:34.716Z,0.23
2016-12-21T05:30:15.261Z,0.32
2016-12-21T05:30:55.785Z,0.23
2016-12-21T05:31:36.324Z,0.18
2016-12-21T05:32:16.875Z,0.24
2016-12-21T05:32:57.417Z,0.21
2016-12-21T05:33:37.945Z,0.28
2016-12-21T05:34:18.461Z,0.2
2016-12-21T05:34:58.985Z,0.26
2016-12-21T05:35:39.512Z,0.21
2016-12-21T05:36:20.050Z,0.28
2016-12-21T05:37:00.566Z,0.31
2016-12-21T05:37:41.098Z,0.26
2016-12-21T05:38:21.640Z,0.32
2016-12-21T05:39:02.183Z,0.24
2016-12-21T05:39:42.714Z,0.24
2016-12-21T05:40:23.256Z,0.32
2016-12-21T05:41:03.791Z,0.29
2016-12-21T05:41:44.338Z,0.26
2016-12-21T05:42:24.853Z,0.31
2016-12-21T05:43:05.369Z,0.36
2016-12-21T05:43:45.895Z,0.36
2016-12-21T05:44:26.425Z,0.38
2016-12-21T05:45:06.957Z,0.38
2016-12-21T05:45:47.509Z,0.35
2016-12-21T05:46:28.029Z,0.38
2016-12-21T05:47:08.532Z,0.39
2016-12-21T05:47:49.054Z,0.35
2016-12-21T05:48:29.584Z,0.41
2016-12-21T05:49:10.112Z,0.33
2016-12-21T05:49:50.604Z,0.33
2016-12-21T05:50:31.125Z,0.24
2016-12-21T05:51:11.652Z,0.31
2016-12-21T05:51:52.184Z,0.33
2016-12-21T05:52:32.714Z,0.33
2016-12-21T05:53:13.236Z,0.33
2016-12-21T05:53:53.770Z,0.29
2016-12-21T05:54:34.284Z,0.35
2016-12-21T05:55:14.809Z,0.38
2016-12-21T05:55:55.332Z,0.26
2016-12-21T05:56:35.869Z,0.29
2016-12-21T05:57:16.388Z,0.31
2016-12-21T05:57:56.915Z,0.29
2016-12-21T05:58:37.418Z,0.28
2016-12-21T05:59:17.944Z,0.21
2016-12-21T05:59:58.460Z,0.21
2016-12-21T06:00:38.986Z,0.29
2016-12-21T06:01:19.522Z,0.21
2016-12-21T06:02:00.059Z,0.26
2016-12-21T06:02:40.581Z,0.23
2016-12-21T06:03:21.111Z,0.31
2016-12-21T06:04:01.652Z,0.33
2016-12-21T06:04:42.195Z,0.32
2016-12-21T06:05:22.725Z,0.39
2016-12-21T06:06:03.275Z,0.36
2016-12-21T06:06:43.839Z,0.41
2016-12-21T06:07:24.343Z,0.47
2016-12-21T06:08:04.842Z,0.47
2016-12-21T06:08:45.370Z,0.47
2016-12-21T06:09:25.886Z,0.55
2016-12-21T06:10:06.425Z,0.55
2016-12-21T06:10:46.965Z,0.57
2016-12-21T06:11:27.494Z,0.53
2016-12-21T06:12:08.031Z,0.49
2016-12-21T06:12:48.553Z,0.51
2016-12-21T06:13:29.087Z,0.6
2016-12-21T06:14:09.600Z,0.57
2016-12-21T06:14:50.131Z,0.5
2016-12-21T06:15:30.658Z,0.6
2016-12-21T06:16:11.190Z,0.6
2016-12-21T06:16:51.723Z,0.47
2016-12-21T06:17:32.252Z,0.51
2016-12-21T06:18:12.785Z,0.57
2016-12-21T06:18:53.295Z,0.5
2016-12-21T06:19:33.820Z,0.55
2016-12-21T06:20:14.354Z,0.57
2016-12-21T06:20:54.883Z,0.47
2016-12-21T06:21:35.429Z,0.51
2016-12-21T06:22:15.958Z,0.55
2016-12-21T06:22:56.491Z,0.49
2016-12-21T06:23:37.022Z,0.55
2016-12-21T06:24:17.564Z,0.58
2016-12-21T06:24:58.099Z,0.51
2016-12-21T06:25:38.624Z,0.58
2016-12-21T06:26:19.145Z,0.5
2016-12-21T06:26:59.670Z,0.49
2016-12-21T06:27:40.260Z,0.57
2016-12-21T06:28:20.800Z,0.51
2016-12-21T06:29:01.331Z,0.47
2016-12-21T06:29:41.865Z,0.5
2016-12-21T06:30:22.396Z,0.51
2016-12-21T06:31:02.933Z,0.51
2016-12-21T06:31:43.433Z,0.51
2016-12-21T06:32:23.977Z,0.5
2016-12-21T06:33:04.505Z,0.6
2016-12-21T06:33:45.070Z,0.58
2016-12-21T06:34:25.609Z,0.53
2016-12-21T06:35:06.114Z,0.57
2016-12-21T06:35:46.654Z,0.55
2016-12-21T06:36:27.181Z,0.53
2016-12-21T06:37:07.709Z,0.47
2016-12-21T06:37:48.210Z,0.47
2016-12-21T06:38:28.734Z,0.53
2016-12-21T06:39:09.260Z,0.53
2016-12-21T06:39:49.787Z,0.51
2016-12-21T06:40:30.303Z,0.51
2016-12-21T06:41:10.841Z,0.5
2016-12-21T06:41:51.365Z,0.6
2016-12-21T06:42:31.924Z,0.55
2016-12-21T06:43:12.464Z,0.55
2016-12-21T06:43:52.991Z,0.5
2016-12-21T06:44:33.510Z,0.53
2016-12-21T06:45:14.037Z,0.49
2016-12-21T06:45:54.564Z,0.49
2016-12-21T06:46:35.092Z,0.5
2016-12-21T06:47:15.610Z,0.5
2016-12-21T06:47:56.117Z,0.47
2016-12-21T06:48:36.643Z,0.58
2016-12-21T06:49:17.177Z,0.58
2016-12-21T06:49:57.702Z,0.55
2016-12-21T06:50:38.249Z,0.47
2016-12-21T06:51:18.768Z,0.51
2016-12-21T06:51:59.296Z,0.47
2016-12-21T06:52:39.831Z,0.5
2016-12-21T06:53:20.357Z,0.58
2016-12-21T06:54:00.885Z,0.51
2016-12-21T06:54:41.421Z,0.55
2016-12-21T06:55:21.949Z,0.53
2016-12-21T06:56:02.476Z,0.5
2016-12-21T06:56:43.009Z,0.5
2016-12-21T06:57:23.528Z,0.58
2016-12-21T06:58:04.050Z,0.53
2016-12-21T06:58:44.574Z,0.58
2016-12-21T06:59:25.095Z,0.47
2016-12-21T07:00:05.620Z,0.51
2016-12-21T07:00:46.152Z,0.5
2016-12-21T07:01:26.695Z,0.58
2016-12-21T07:02:07.226Z,0.53
2016-12-21T07:02:47.757Z,0.55
2016-12-21T07:03:28.290Z,0.55
2016-12-21T07:04:08.822Z,0.53
2016-12-21T07:04:49.352Z,0.55
2016-12-21T07:05:29.882Z,0.44
2016-12-21T07:06:10.412Z,0.44
2016-12-21T07:06:50.976Z,0.53
2016-12-21T07:07:31.600Z,0.44
2016-12-21T07:08:12.131Z,0.51
2016-12-21T07:08:52.667Z,0.41
2016-12-21T07:09:33.201Z,0.51
2016-12-21T07:10:13.723Z,0.44
2016-12-21T07:10:54.264Z,0.53
2016-12-21T07:11:34.801Z,0.55
2016-12-21T07:12:15.334Z,0.57
2016-12-21T07:12:55.870Z,0.55
2016-12-21T07:13:36.394Z,0.5
2016-12-21T07:14:16.923Z,0.57
2016-12-21T07:14:57.466Z,0.55
2016-12-21T07:15:37.994Z,0.55
2016-12-21T07:16:18.527Z,0.47
2016-12-21T07:16:59.074Z,0.44
2016-12-21T07:17:39.609Z,0.41
2016-12-21T07:18:20.155Z,0.44
2016-12-21T07:19:00.688Z,0.44
2016-12-21T07:19:41.216Z,0.35
2016-12-21T07:20:21.745Z,0.47
2016-12-21T07:21:02.275Z,0.42
2016-12-21T07:21:42.785Z,0.47
2016-12-21T07:22:23.313Z,0.49
2016-12-21T07:23:03.845Z,0.47
2016-12-21T07:23:44.390Z,0.57
2016-12-21T07:24:24.911Z,0.57
2016-12-21T07:25:05.429Z,0.51
2016-12-21T07:25:45.965Z,0.51
2016-12-21T07:26:26.490Z,0.57
2016-12-21T07:27:07.037Z,0.55
2016-12-21T07:27:47.569Z,0.5
2016-12-21T07:28:28.101Z,0.53
2016-12-21T07:29:08.631Z,0.49
2016-12-21T07:29:49.166Z,0.5
2016-12-21T07:30:29.700Z,0.51
2016-12-21T07:31:10.238Z,0.5
2016-12-21T07:31:50.753Z,0.65
2016-12-21T07:32:31.283Z,0.66
2016-12-21T07:33:11.874Z,0.7
2016-12-21T07:33:52.412Z,0.65
2016-12-21T07:34:32.936Z,0.72
2016-12-21T07:35:13.498Z,0.73
2016-12-21T07:35:54.029Z,0.7
2016-12-21T07:36:34.584Z,0.75
2016-12-21T07:37:15.067Z,0.73
2016-12-21T07:37:55.642Z,0.75
2016-12-21T07:38:36.196Z,0.83
2016-12-21T07:39:16.726Z,0.76
2016-12-21T07:39:57.276Z,0.83
2016-12-21T07:40:37.819Z,0.79
2016-12-21T07:41:18.334Z,0.76
2016-12-21T07:41:58.862Z,0.69
2016-12-21T07:42:39.402Z,0.66
2016-12-21T07:43:19.943Z,0.69
2016-12-21T07:44:00.479Z,0.7
2016-12-21T07:44:41.024Z,0.69
2016-12-21T07:45:21.548Z,0.76
2016-12-21T07:46:02.077Z,0.72
2016-12-21T07:46:42.603Z,0.84
2016-12-21T07:47:23.136Z,0.83
2016-12-21T07:48:03.665Z,0.72
2016-12-21T07:48:44.188Z,0.79
2016-12-21T07:49:24.721Z,0.8
2016-12-21T07:50:05.247Z,0.83
2016-12-21T07:50:45.760Z,0.8
2016-12-21T07:51:26.286Z,0.75
2016-12-21T07:52:06.810Z,0.76
2016-12-21T07:52:47.342Z,0.8
2016-12-21T07:53:27.881Z,0.78
2016-12-21T07:54:08.399Z,0.78
2016-12-21T07:54:48.921Z,0.86
2016-12-21T07:55:29.449Z,0.8
2016-12-21T07:56:09.985Z,0.8
2016-12-21T07:56:50.536Z,0.86
2016-12-21T07:57:31.066Z,0.78
2016-12-21T07:58:11.592Z,0.83
2016-12-21T07:58:52.101Z,0.84
2016-12-21T07:59:32.629Z,0.83
2016-12-21T08:00:13.148Z,0.9
2016-12-21T08:00:53.671Z,0.88
2016-12-21T08:01:34.207Z,0.83
2016-12-21T08:02:14.741Z,0.84
2016-12-21T08:02:55.278Z,0.84
2016-12-21T08:03:35.806Z,0.86
2016-12-21T08:04:16.334Z,0.86
2016-12-21T08:04:56.872Z,0.93
2016-12-21T08:05:37.409Z,0.87
2016-12-21T08:06:17.928Z,0.91
2016-12-21T08:06:58.464Z,0.96
2016-12-21T08:07:39.033Z,0.93
2016-12-21T08:08:19.567Z,0.97
2016-12-21T08:09:00.119Z,0.97
2016-12-21T08:09:40.651Z,0.91
2016-12-21T08:10:21.189Z,1.02
2016-12-21T08:11:01.731Z,0.97
2016-12-21T08:11:42.259Z,1.08
2016-12-21T08:12:22.801Z,1.06
2016-12-21T08:13:03.326Z,0.96
2016-12-21T08:13:43.853Z,1.08
2016-12-21T08:14:24.390Z,1.04
2016-12-21T08:15:04.925Z,1.15
2016-12-21T08:15:45.432Z,1.12
2016-12-21T08:16:25.949Z,1.09
2016-12-21T08:17:06.482Z,1.11
2016-12-21T08:17:47.013Z,1.06
2016-12-21T08:18:27.533Z,1.09
2016-12-21T08:19:08.063Z,1.16
2016-12-21T08:19:48.567Z,1.15
2016-12-21T08:20:29.103Z,1.14
2016-12-21T08:21:09.617Z,1.22
2016-12-21T08:21:50.144Z,1.16
2016-12-21T08:22:30.682Z,1.18
2016-12-21T08:23:11.229Z,1.16
2016-12-21T08:23:51.760Z,1.22
2016-12-21T08:24:32.300Z,1.29
2016-12-21T08:25:12.838Z,1.36
2016-12-21T08:25:53.370Z,1.33
2016-12-21T08:26:33.907Z,1.37
2016-12-21T08:27:14.440Z,1.42
2016-12-21T08:27:54.971Z,1.47
2016-12-21T08:28:35.508Z,1.42
2016-12-21T08:29:16.048Z,1.44
2016-12-21T08:29:56.575Z,1.59
2016-12-21T08:30:37.104Z,1.59
2016-12-21T08:31:17.626Z,1.62
2016-12-21T08:31:58.142Z,1.59
2016-12-21T08:32:38.689Z,1.7
2016-12-21T08:33:19.203Z,1.73
2016-12-21T08:33:59.740Z,1.83
2016-12-21T08:34:40.258Z,1.87
2016-12-21T08:35:20.790Z,1.84
2016-12-21T08:36:01.317Z,1.86
2016-12-21T08:36:41.844Z,1.87
2016-12-21T08:37:22.366Z,1.87
2016-12-21T08:38:02.902Z,1.9
2016-12-21T08:38:43.424Z,2
2016-12-21T08:39:23.955Z,2
2016-12-21T08:40:04.503Z,2.07
2016-12-21T08:40:45.033Z,2.06
2016-12-21T08:41:25.570Z,2.1
2016-12-21T08:42:06.113Z,2.17
2016-12-21T08:42:46.633Z,2.2
2016-12-21T08:43:27.169Z,2.25
2016-12-21T08:44:07.700Z,2.3
2016-12-21T08:44:48.230Z,2.3
2016-12-21T08:45:28.767Z,2.3
2016-12-21T08:46:09.305Z,2.39
2016-12-21T08:46:49.848Z,2.39
2016-12-21T08:47:30.380Z,2.45
2016-12-21T08:48:10.899Z,2.38
2016-12-21T08:48:51.447Z,2.49
2016-12-21T08:49:31.988Z,2.56
2016-12-21T08:50:12.507Z,2.57
2016-12-21T08:50:53.032Z,2.57
2016-12-21T08:51:33.566Z,2.61
2016-12-21T08:52:14.092Z,2.78
2016-12-21T08:52:54.617Z,2.79
2016-12-21T08:53:35.149Z,2.77
2016-12-21T08:54:15.682Z,2.84
2016-12-21T08:54:56.210Z,2.78
2016-12-21T08:55:36.733Z,2.89
2016-12-21T08:56:17.267Z,2.95
2016-12-21T08:56:57.795Z,2.96
2016-12-21T08:57:38.311Z,2.96
2016-12-21T08:58:18.837Z,3.17
2016-12-21T08:58:59.363Z,3.14
2016-12-21T08:59:39.880Z,3.26
2016-12-21T09:00:20.399Z,3.26
2016-12-21T09:01:00.921Z,3.26
2016-12-21T09:01:41.464Z,3.24
2016-12-21T09:02:21.999Z,3.21
2016-12-21T09:03:02.525Z,3.26
2016-12-21T09:03:43.044Z,3.31
2016-12-21T09:04:23.574Z,3.39
2016-12-21T09:05:04.105Z,3.42
2016-12-21T09:05:44.633Z,3.42
2016-12-21T09:06:25.166Z,3.5
2016-12-21T09:07:05.696Z,3.51
2016-12-21T09:07:46.227Z,3.54
2016-12-21T09:08:26.759Z,3.6
2016-12-21T09:09:07.301Z,3.57
2016-12-21T09:09:47.849Z,3.58
2016-12-21T09:10:28.369Z,3.65
2016-12-21T09:11:08.897Z,3.65
2016-12-21T09:11:49.436Z,3.66
2016-12-21T09:12:29.976Z,3.68
2016-12-21T09:13:10.507Z,3.58
2016-12-21T09:13:51.022Z,3.66
2016-12-21T09:14:31.562Z,3.76
2016-12-21T09:15:12.078Z,3.78
2016-12-21T09:15:52.620Z,3.93
2016-12-21T09:16:33.142Z,3.9
2016-12-21T09:17:13.672Z,3.94
2016-12-21T09:17:54.194Z,3.98
2016-12-21T09:18:34.720Z,4.09
2016-12-21T09:19:15.293Z,4.24
2016-12-21T09:19:55.813Z,4.24
2016-12-21T09:20:36.364Z,4.33
2016-12-21T09:21:16.866Z,4.55
2016-12-21T09:21:57.402Z,4.66
2016-12-21T09:22:37.928Z,4.69
2016-12-21T09:23:18.447Z,4.77
2016-12-21T09:23:58.980Z,4.77
2016-12-21T09:24:39.483Z,4.75
2016-12-21T09:25:20.015Z,4.69
2016-12-21T09:26:00.553Z,4.7
2016-12-21T09:26:41.074Z,4.63
2016-12-21T09:27:21.599Z,4.69
2016-12-21T09:28:02.116Z,4.65
2016-12-21T09:28:42.647Z,4.69
2016-12-21T09:29:23.177Z,4.66
2016-12-21T09:30:03.699Z,4.75
2016-12-21T09:30:44.242Z,4.91
2016-12-21T09:31:24.770Z,4.91